Time;durP1;ratioP1;P1;durP2;ratioP2;P2;SDS_P1;SDS_P2;PMS_P1;PMS_P2;Temp;Humidity;BMP_temperature;BMP_pressure;BME280_temperature;BME280_humidity;BME280_pressure;Samples;Min_cycle;Max_cycle;Signal;HPM_P1;HPM_P2
2024/03/10 00:00:39;;;;;;;20.00;14.55;;;9.10;99.60;;;;;;5034410;28;20036;-87
2024/03/10 00:03:07;;;;;;;23.60;17.58;;;9.10;99.60;;;;;;5032520;28;20036;-87
2024/03/10 00:05:34;;;;;;;22.02;16.88;;;9.10;99.60;;;;;;5032201;28;20127;-87
2024/03/10 00:08:00;;;;;;;22.23;16.08;;;9.10;99.60;;;;;;5035552;28;20053;-87
2024/03/10 00:10:26;;;;;;;21.45;16.52;;;9.00;99.60;;;;;;5045014;28;20103;-86
2024/03/10 00:12:52;;;;;;;20.25;15.77;;;9.00;99.60;;;;;;5053422;28;20021;-86
2024/03/10 00:15:21;;;;;;;21.58;15.70;;;9.00;99.60;;;;;;5007077;28;20396;-86
2024/03/10 00:17:47;;;;;;;24.30;17.00;;;9.10;99.60;;;;;;5048983;28;20033;-87
2024/03/10 00:20:13;;;;;;;23.08;16.27;;;9.00;99.60;;;;;;5032830;28;20034;-86
2024/03/10 00:22:40;;;;;;;22.98;17.00;;;9.00;99.70;;;;;;5031537;28;20043;-87
2024/03/10 00:25:09;;;;;;;23.52;17.05;;;9.00;99.70;;;;;;5050838;28;20086;-85
2024/03/10 00:27:38;;;;;;;25.50;17.10;;;9.00;99.80;;;;;;5023816;28;20018;-85
2024/03/10 00:30:05;;;;;;;25.42;17.35;;;8.90;99.70;;;;;;5038640;28;20025;-82
2024/03/10 00:32:35;;;;;;;22.25;16.45;;;8.90;99.80;;;;;;5053838;28;20113;-83
2024/03/10 00:35:01;;;;;;;20.90;16.85;;;8.90;99.80;;;;;;5023904;28;20379;-86
2024/03/10 00:37:28;;;;;;;20.65;15.93;;;8.90;99.80;;;;;;5016304;28;20056;-86
2024/03/10 00:39:54;;;;;;;20.67;15.88;;;8.90;99.80;;;;;;5050120;28;20067;-88
2024/03/10 00:42:22;;;;;;;22.05;17.48;;;8.90;99.90;;;;;;5034835;28;20377;-87
2024/03/10 00:44:50;;;;;;;23.58;17.02;;;8.90;99.90;;;;;;4996625;28;20025;-87
2024/03/10 00:47:16;;;;;;;23.23;17.92;;;8.90;99.90;;;;;;5028300;28;20061;-86
2024/03/10 00:49:42;;;;;;;23.67;17.52;;;8.90;99.90;;;;;;5024726;28;20046;-86
2024/03/10 00:52:09;;;;;;;21.92;16.80;;;8.80;99.80;;;;;;5000825;28;20080;-86
2024/03/10 00:54:35;;;;;;;23.25;17.52;;;8.80;99.90;;;;;;5015867;28;20470;-86
2024/03/10 00:57:01;;;;;;;24.33;16.88;;;8.80;99.90;;;;;;5034126;28;20493;-86
2024/03/10 00:59:27;;;;;;;22.42;16.75;;;8.90;99.90;;;;;;5019341;28;20021;-86
2024/03/10 01:01:53;;;;;;;23.17;17.27;;;8.80;99.90;;;;;;5016016;28;20473;-87
2024/03/10 01:04:19;;;;;;;24.65;17.50;;;8.80;99.90;;;;;;5022242;28;20037;-86
2024/03/10 01:06:45;;;;;;;23.50;17.80;;;8.80;99.90;;;;;;5014871;28;20029;-87
2024/03/10 01:09:13;;;;;;;22.00;17.95;;;8.80;99.90;;;;;;5032087;28;20386;-86
2024/03/10 01:11:47;;;;;;;23.52;17.83;;;8.80;99.90;;;;;;5019367;28;20473;-86
2024/03/10 01:14:13;;;;;;;21.48;16.27;;;8.80;99.90;;;;;;5043993;28;20468;-87
2024/03/10 01:16:40;;;;;;;26.98;19.08;;;8.80;99.90;;;;;;5055385;28;20026;-86
2024/03/10 01:19:09;;;;;;;24.00;17.80;;;8.80;99.90;;;;;;5020546;28;20443;-84
2024/03/10 01:21:35;;;;;;;23.10;17.60;;;8.80;99.90;;;;;;5018939;28;20133;-85
2024/03/10 01:24:01;;;;;;;23.63;17.83;;;8.80;99.90;;;;;;5018716;28;20049;-86
2024/03/10 01:26:27;;;;;;;19.77;16.02;;;8.80;99.90;;;;;;5018576;28;20366;-86
2024/03/10 01:28:53;;;;;;;22.45;16.48;;;8.80;99.90;;;;;;5025494;28;20037;-86
2024/03/10 01:31:19;;;;;;;23.13;17.02;;;8.80;99.90;;;;;;5047846;28;20096;-86
2024/03/10 01:33:44;;;;;;;23.58;17.58;;;8.70;99.90;;;;;;5002624;28;20038;-87
2024/03/10 01:36:11;;;;;;;21.02;16.15;;;8.80;99.90;;;;;;5002183;28;20064;-86
2024/03/10 01:38:39;;;;;;;20.67;15.95;;;8.80;99.90;;;;;;5002577;28;20457;-86
2024/03/10 01:41:04;;;;;;;23.38;17.77;;;8.80;99.90;;;;;;5018859;28;20032;-86
2024/03/10 01:43:30;;;;;;;23.67;18.52;;;8.80;99.90;;;;;;5029518;28;20030;-86
2024/03/10 01:46:15;;;;;;;21.92;17.35;;;8.80;99.90;;;;;;5048889;28;20128;-86
2024/03/10 01:48:41;;;;;;;23.25;17.13;;;8.70;99.90;;;;;;5031883;28;20033;-86
2024/03/10 01:51:08;;;;;;;25.48;17.98;;;8.70;99.90;;;;;;5056366;28;20116;-86
2024/03/10 01:53:37;;;;;;;23.73;17.90;;;8.70;99.90;;;;;;5052977;28;20068;-86
2024/03/10 01:56:06;;;;;;;23.15;17.90;;;8.70;99.90;;;;;;5059606;28;20030;-85
2024/03/10 01:58:33;;;;;;;24.77;18.45;;;8.70;99.90;;;;;;5040488;28;20044;-83
2024/03/10 02:01:01;;;;;;;23.95;18.33;;;8.70;99.90;;;;;;5062203;28;20118;-86
2024/03/10 02:03:28;;;;;;;23.17;18.13;;;8.70;99.90;;;;;;5036177;28;20132;-86
2024/03/10 02:05:54;;;;;;;25.00;18.15;;;8.60;99.90;;;;;;5018248;28;20443;-87
2024/03/10 02:08:20;;;;;;;25.27;18.70;;;8.60;99.90;;;;;;5033944;28;20034;-86
2024/03/10 02:10:48;;;;;;;22.88;17.83;;;8.60;99.90;;;;;;5039517;28;20025;-86
2024/03/10 02:13:18;;;;;;;26.73;19.40;;;8.60;99.90;;;;;;5037882;28;20419;-87
2024/03/10 02:15:57;;;;;;;26.85;19.58;;;8.50;99.90;;;;;;5029734;28;20112;-86
2024/03/10 02:18:23;;;;;;;25.40;18.40;;;8.50;99.90;;;;;;5032128;28;20041;-86
2024/03/10 02:20:50;;;;;;;23.13;17.52;;;8.50;99.90;;;;;;5034622;28;20102;-86
2024/03/10 02:23:17;;;;;;;23.60;18.08;;;8.50;99.90;;;;;;5034281;28;20026;-85
2024/03/10 02:25:45;;;;;;;24.65;18.60;;;8.50;99.90;;;;;;5022479;28;20055;-85
2024/03/10 02:28:20;;;;;;;21.75;17.38;;;8.50;99.90;;;;;;5053714;28;20517;-85
2024/03/10 02:30:57;;;;;;;24.40;19.20;;;8.50;99.90;;;;;;5031029;28;20033;-85
2024/03/10 02:47:14;;;;;;;25.98;19.08;;;8.50;99.90;;;;;;5039147;28;20148;-86
2024/03/10 02:49:41;;;;;;;27.02;20.23;;;8.60;99.90;;;;;;5033348;28;20021;-86
2024/03/10 02:52:08;;;;;;;24.00;18.33;;;8.50;99.90;;;;;;5034053;28;20069;-86
2024/03/10 02:54:39;;;;;;;26.80;19.73;;;8.50;99.90;;;;;;5024695;28;20017;-86
2024/03/10 02:57:06;;;;;;;23.52;18.70;;;8.40;99.90;;;;;;5037781;28;20017;-86
2024/03/10 02:59:32;;;;;;;29.17;21.00;;;8.40;99.90;;;;;;5034386;28;20056;-86
2024/03/10 03:01:58;;;;;;;25.08;19.40;;;8.40;99.90;;;;;;5033810;28;20025;-86
2024/03/10 03:04:28;;;;;;;25.58;19.00;;;8.40;99.90;;;;;;5034312;28;20037;-85
2024/03/10 03:06:54;;;;;;;26.55;20.33;;;8.40;99.90;;;;;;5033265;28;20109;-86
2024/03/10 03:09:23;;;;;;;25.23;19.40;;;8.30;99.90;;;;;;5034684;28;20032;-86
2024/03/10 03:11:50;;;;;;;26.35;19.00;;;8.30;99.90;;;;;;5014214;28;20049;-86
2024/03/10 03:14:15;;;;;;;27.92;20.80;;;8.30;99.90;;;;;;5033660;28;20030;-86
2024/03/10 03:16:44;;;;;;;25.27;19.00;;;8.30;99.90;;;;;;5001053;28;20425;-86
2024/03/10 03:19:13;;;;;;;28.08;19.73;;;8.30;99.90;;;;;;5003362;28;20022;-85
2024/03/10 03:21:45;;;;;;;25.35;19.13;;;8.30;99.90;;;;;;5049435;28;20013;-85
2024/03/10 03:24:13;;;;;;;26.90;19.38;;;8.30;99.90;;;;;;5060209;28;20621;-86
2024/03/10 03:26:39;;;;;;;25.75;19.35;;;8.30;99.90;;;;;;5009245;28;20028;-86
2024/03/10 03:29:05;;;;;;;26.50;19.80;;;8.30;99.90;;;;;;5034187;28;20029;-87
2024/03/10 03:31:31;;;;;;;26.70;19.55;;;8.30;99.90;;;;;;5033791;28;20029;-85
2024/03/10 03:33:58;;;;;;;26.05;18.67;;;8.30;99.90;;;;;;5034603;28;20346;-86
2024/03/10 03:36:23;;;;;;;26.00;19.15;;;8.30;99.90;;;;;;5033112;28;20037;-84
2024/03/10 03:38:49;;;;;;;28.58;19.75;;;8.30;99.90;;;;;;5016059;28;20429;-85
2024/03/10 03:41:15;;;;;;;28.48;21.40;;;8.30;99.90;;;;;;5034119;28;20030;-86
2024/03/10 03:43:41;;;;;;;29.40;20.55;;;8.20;99.90;;;;;;5015684;28;20026;-85
2024/03/10 03:46:07;;;;;;;25.77;20.00;;;8.20;99.90;;;;;;5022782;28;20503;-86
2024/03/10 03:48:33;;;;;;;25.85;18.33;;;8.20;99.90;;;;;;5048703;28;20125;-85
2024/03/10 03:50:58;;;;;;;25.17;18.83;;;8.20;99.90;;;;;;5032850;28;20025;-86
2024/03/10 03:53:24;;;;;;;25.77;19.30;;;8.20;99.90;;;;;;5032341;28;20072;-85
2024/03/10 03:55:50;;;;;;;28.30;19.95;;;8.20;99.90;;;;;;5032280;28;20017;-85
2024/03/10 03:58:16;;;;;;;27.65;20.75;;;8.20;99.90;;;;;;5000390;28;20428;-86
2024/03/10 04:00:42;;;;;;;25.88;18.95;;;8.20;99.90;;;;;;4999455;28;20029;-86
2024/03/10 04:03:09;;;;;;;29.50;20.77;;;8.20;99.90;;;;;;5015943;28;20491;-85
2024/03/10 04:05:35;;;;;;;26.48;19.83;;;8.20;99.90;;;;;;5015479;28;20029;-85
2024/03/10 04:08:01;;;;;;;27.38;20.38;;;8.20;99.90;;;;;;5032175;28;20033;-85
2024/03/10 04:10:29;;;;;;;26.60;20.48;;;8.10;99.90;;;;;;5029036;28;20104;-85
2024/03/10 04:12:55;;;;;;;24.90;18.80;;;8.10;99.90;;;;;;5022814;28;20388;-85
2024/03/10 04:15:21;;;;;;;26.02;19.02;;;8.10;99.90;;;;;;5052081;28;20115;-85
2024/03/10 04:17:47;;;;;;;28.05;20.65;;;8.10;99.90;;;;;;5031685;28;20032;-84
2024/03/10 04:20:13;;;;;;;27.27;19.73;;;8.10;99.90;;;;;;5032164;28;20029;-84
2024/03/10 04:22:42;;;;;;;24.35;19.17;;;8.10;99.90;;;;;;5031876;28;20355;-85
2024/03/10 04:25:09;;;;;;;28.30;20.90;;;8.10;99.90;;;;;;5009144;28;20042;-85
2024/03/10 04:27:35;;;;;;;27.92;20.95;;;8.00;99.90;;;;;;5031849;28;20041;-84
2024/03/10 04:30:04;;;;;;;27.52;20.60;;;8.00;99.90;;;;;;5035933;28;20354;-85
2024/03/10 04:32:36;;;;;;;30.63;21.95;;;7.90;99.90;;;;;;5035621;28;20120;-79
2024/03/10 04:35:02;;;;;;;27.80;20.45;;;7.90;99.90;;;;;;5003259;28;20030;-80
2024/03/10 04:37:31;;;;;;;27.52;20.50;;;7.80;99.90;;;;;;5020740;28;20022;-79
2024/03/10 04:40:00;;;;;;;27.27;19.67;;;7.80;99.90;;;;;;5003393;28;20482;-81
2024/03/10 04:42:26;;;;;;;28.10;20.73;;;7.80;99.90;;;;;;5020724;28;20037;-80
2024/03/10 04:44:52;;;;;;;27.52;20.50;;;7.70;99.90;;;;;;5010584;28;20022;-79
2024/03/10 04:47:18;;;;;;;29.92;21.00;;;7.70;99.90;;;;;;5044085;28;20022;-80
2024/03/10 04:49:43;;;;;;;29.52;20.73;;;7.70;99.90;;;;;;5044234;28;20006;-80
2024/03/10 04:52:09;;;;;;;28.27;20.67;;;7.70;99.90;;;;;;5044031;28;20089;-80
2024/03/10 04:54:35;;;;;;;30.08;21.65;;;7.60;99.90;;;;;;5044203;28;20006;-80
2024/03/10 04:57:01;;;;;;;27.17;20.23;;;7.60;99.90;;;;;;5039384;28;20453;-81
2024/03/10 04:59:27;;;;;;;29.85;22.40;;;7.60;99.90;;;;;;5019505;28;20084;-80
2024/03/10 05:01:56;;;;;;;29.48;20.58;;;7.60;99.90;;;;;;5019180;28;20030;-79
2024/03/10 05:04:22;;;;;;;30.58;21.73;;;7.60;99.90;;;;;;5020305;28;20030;-81
2024/03/10 05:06:48;;;;;;;29.10;22.50;;;7.50;99.90;;;;;;5019205;28;20084;-80
2024/03/10 05:09:14;;;;;;;31.52;22.02;;;7.50;99.90;;;;;;5002926;28;20049;-79
2024/03/10 05:11:43;;;;;;;30.05;21.95;;;7.50;99.90;;;;;;5035514;28;20536;-79
2024/03/10 05:14:09;;;;;;;29.08;21.02;;;7.50;99.90;;;;;;5019353;28;20359;-79
2024/03/10 05:16:37;;;;;;;29.85;21.67;;;7.50;99.90;;;;;;5035327;28;20022;-80
2024/03/10 05:19:04;;;;;;;28.20;20.63;;;7.50;99.90;;;;;;5019171;28;20045;-80
2024/03/10 05:21:30;;;;;;;29.25;21.42;;;7.50;99.90;;;;;;5020522;28;20593;-80
2024/03/10 05:23:56;;;;;;;29.80;22.23;;;7.40;99.90;;;;;;5036875;28;20044;-78
2024/03/10 05:26:21;;;;;;;30.92;21.83;;;7.40;99.90;;;;;;5022356;28;20034;-77
2024/03/10 05:28:47;;;;;;;27.58;21.08;;;7.40;99.90;;;;;;5020855;28;20474;-79
2024/03/10 05:31:32;;;;;;;30.02;20.92;;;7.40;99.90;;;;;;5037548;28;20029;-80
2024/03/10 05:34:00;;;;;;;29.70;21.63;;;7.40;99.90;;;;;;5020426;28;20021;-80
2024/03/10 05:36:27;;;;;;;27.67;20.02;;;7.40;99.90;;;;;;5019024;28;20022;-80
2024/03/10 05:38:53;;;;;;;28.98;21.33;;;7.40;99.90;;;;;;5035130;28;20047;-80
2024/03/10 05:41:19;;;;;;;28.00;20.70;;;7.40;99.90;;;;;;5019458;28;20036;-80
2024/03/10 05:43:45;;;;;;;26.90;20.17;;;7.40;99.90;;;;;;5016610;28;20026;-80
2024/03/10 05:46:14;;;;;;;28.33;20.48;;;7.40;99.90;;;;;;5032179;28;20193;-79
2024/03/10 05:48:41;;;;;;;27.98;20.52;;;7.40;99.90;;;;;;5015523;28;20026;-80
2024/03/10 05:51:13;;;;;;;29.70;21.50;;;7.40;99.90;;;;;;5015416;28;20068;-80
2024/03/10 05:53:42;;;;;;;30.13;22.30;;;7.40;99.90;;;;;;5016922;28;20026;-79
2024/03/10 05:56:08;;;;;;;30.45;21.33;;;7.40;99.90;;;;;;5031989;28;20061;-81
2024/03/10 05:58:34;;;;;;;28.98;20.70;;;7.40;99.90;;;;;;5015658;28;20058;-80
2024/03/10 06:01:05;;;;;;;29.30;21.23;;;7.40;99.90;;;;;;5015527;28;20137;-80
2024/03/10 06:03:31;;;;;;;26.73;19.67;;;7.30;99.90;;;;;;5016096;28;20044;-79
2024/03/10 06:05:57;;;;;;;28.13;20.23;;;7.30;99.90;;;;;;5016027;28;20026;-80
2024/03/10 06:08:23;;;;;;;28.40;19.52;;;7.40;99.90;;;;;;5017000;28;20037;-80
2024/03/10 06:10:50;;;;;;;30.45;21.65;;;7.30;99.90;;;;;;5018319;28;20049;-80
2024/03/10 06:13:19;;;;;;;27.90;20.83;;;7.30;99.90;;;;;;5040302;28;20010;-79
2024/03/10 06:15:44;;;;;;;27.92;21.02;;;7.30;99.90;;;;;;5038697;28;20018;-80
2024/03/10 06:18:21;;;;;;;30.27;21.15;;;7.30;99.90;;;;;;5052160;28;20022;-80
2024/03/10 06:26:17;;;;;;;30.45;21.15;;;7.30;99.90;;;;;;5016695;28;20053;-80
2024/03/10 06:28:47;;;;;;;31.88;20.83;;;7.20;99.90;;;;;;5016179;28;20496;-80
2024/03/10 06:31:13;;;;;;;29.20;21.23;;;7.20;99.90;;;;;;5015564;28;20397;-79
2024/03/10 06:33:38;;;;;;;29.30;21.75;;;7.30;99.90;;;;;;5014937;28;20022;-80
2024/03/10 06:36:10;;;;;;;28.80;21.15;;;7.20;99.90;;;;;;5031522;28;20114;-79
2024/03/10 06:38:40;;;;;;;30.23;21.58;;;7.20;99.90;;;;;;5016084;28;20029;-79
2024/03/10 06:41:10;;;;;;;28.08;20.02;;;7.30;99.90;;;;;;5015061;28;20044;-80
2024/03/10 06:43:39;;;;;;;31.83;21.77;;;7.30;99.90;;;;;;5016082;28;20026;-81
2024/03/10 06:46:08;;;;;;;31.08;21.60;;;7.30;99.90;;;;;;5015932;28;20462;-80
2024/03/10 06:48:35;;;;;;;30.15;20.52;;;7.30;99.90;;;;;;5030921;28;20022;-82
2024/03/10 06:51:01;;;;;;;32.30;22.15;;;7.30;99.90;;;;;;5015799;28;20512;-81
2024/03/10 06:53:32;;;;;;;28.83;20.38;;;7.30;99.90;;;;;;5014535;28;20030;-82
2024/03/10 06:56:03;;;;;;;31.23;22.00;;;7.30;99.90;;;;;;5030656;28;20026;-81
2024/03/10 06:58:30;;;;;;;29.80;20.40;;;7.30;99.90;;;;;;5014641;28;20037;-80
2024/03/10 07:00:56;;;;;;;30.02;20.35;;;7.40;99.90;;;;;;5014510;28;20360;-82
2024/03/10 07:03:22;;;;;;;26.83;19.02;;;7.40;99.90;;;;;;5014348;28;20045;-83
2024/03/10 07:05:51;;;;;;;28.02;19.77;;;7.40;99.90;;;;;;4982144;28;20030;-82
2024/03/10 07:08:17;;;;;;;29.33;21.33;;;7.40;99.90;;;;;;5014150;28;20508;-82
2024/03/10 07:10:43;;;;;;;28.65;20.40;;;7.40;99.90;;;;;;5030609;28;20105;-82
2024/03/10 07:13:12;;;;;;;27.88;19.08;;;7.50;99.90;;;;;;5030770;28;20115;-81
2024/03/10 07:15:38;;;;;;;27.20;18.95;;;7.50;99.90;;;;;;5014718;28;20061;-82
2024/03/10 07:18:06;;;;;;;28.20;19.90;;;7.50;99.90;;;;;;5014361;28;20061;-82
2024/03/10 07:20:35;;;;;;;30.00;20.48;;;7.50;99.90;;;;;;4998279;28;20116;-83
2024/03/10 07:23:01;;;;;;;25.00;18.58;;;7.50;99.90;;;;;;5030999;28;20030;-82
2024/03/10 07:25:30;;;;;;;27.23;19.70;;;7.50;99.90;;;;;;5014317;28;20424;-82
2024/03/10 07:27:56;;;;;;;28.30;21.23;;;7.60;99.90;;;;;;5017386;28;20049;-81
2024/03/10 07:30:22;;;;;;;29.98;21.17;;;7.60;99.90;;;;;;5018258;28;20037;-80
2024/03/10 07:32:48;;;;;;;28.38;20.55;;;7.60;99.90;;;;;;5023519;28;20029;-83
2024/03/10 07:35:16;;;;;;;27.33;20.23;;;7.60;99.90;;;;;;5038251;28;20013;-81
2024/03/10 07:37:44;;;;;;;28.63;20.42;;;7.60;99.90;;;;;;5022228;28;20025;-82
2024/03/10 07:40:19;;;;;;;29.70;20.92;;;7.60;99.90;;;;;;5038320;28;20041;-82
2024/03/10 07:42:46;;;;;;;27.10;19.90;;;7.60;99.90;;;;;;5046706;28;20024;-82
2024/03/10 07:45:12;;;;;;;30.15;20.73;;;7.70;99.90;;;;;;5014508;28;20053;-82
2024/03/10 07:47:44;;;;;;;26.27;18.77;;;7.60;99.90;;;;;;5030518;28;20481;-83
2024/03/10 07:50:14;;;;;;;29.15;20.02;;;7.70;99.90;;;;;;5015339;28;20022;-83
2024/03/10 07:52:41;;;;;;;26.55;18.75;;;7.80;99.90;;;;;;5014040;28;20033;-84
2024/03/10 07:55:09;;;;;;;24.58;18.73;;;7.80;99.90;;;;;;5015364;28;20022;-82
2024/03/10 07:57:35;;;;;;;27.65;19.55;;;7.90;99.90;;;;;;5013807;28;20049;-82
2024/03/10 08:00:05;;;;;;;27.27;19.42;;;8.00;99.90;;;;;;5013820;28;20060;-83
2024/03/10 08:02:34;;;;;;;25.47;18.83;;;8.10;99.90;;;;;;5030388;28;20018;-83
2024/03/10 08:04:59;;;;;;;23.88;18.08;;;8.10;99.90;;;;;;5013105;28;20045;-83
2024/03/10 08:07:25;;;;;;;25.55;18.05;;;8.20;99.90;;;;;;4997366;28;20469;-83
2024/03/10 08:09:51;;;;;;;25.23;19.02;;;8.30;99.90;;;;;;5014797;28;20022;-82
2024/03/10 08:12:17;;;;;;;23.38;17.45;;;8.40;99.90;;;;;;5014126;28;20026;-82
2024/03/10 08:14:44;;;;;;;24.52;18.27;;;8.50;99.90;;;;;;5014292;28;20390;-81
2024/03/10 08:17:10;;;;;;;23.95;18.42;;;8.50;99.90;;;;;;5031676;28;20068;-81
2024/03/10 08:19:36;;;;;;;27.88;18.77;;;8.60;99.90;;;;;;5018767;28;20030;-80
2024/03/10 08:22:03;;;;;;;25.05;18.30;;;8.70;99.90;;;;;;5024723;28;20022;-80
2024/03/10 08:24:28;;;;;;;25.33;18.85;;;8.80;99.90;;;;;;5023536;28;20138;-81
2024/03/10 08:26:54;;;;;;;26.65;18.90;;;8.80;99.90;;;;;;5022738;28;20061;-80
2024/03/10 08:29:20;;;;;;;27.20;19.83;;;8.80;99.90;;;;;;5017239;28;20029;-82
2024/03/10 08:31:49;;;;;;;25.75;18.80;;;8.80;99.90;;;;;;4997341;28;20026;-82
2024/03/10 08:34:16;;;;;;;25.52;18.60;;;8.80;99.90;;;;;;5013239;28;20156;-83
2024/03/10 08:36:42;;;;;;;22.67;17.73;;;8.80;99.90;;;;;;5013348;28;20026;-83
2024/03/10 08:39:07;;;;;;;23.77;19.02;;;8.80;99.90;;;;;;4997109;28;20026;-83
2024/03/10 08:41:37;;;;;;;23.10;17.75;;;8.80;99.90;;;;;;5013371;28;20417;-82
2024/03/10 08:44:03;;;;;;;26.13;19.48;;;8.80;99.90;;;;;;5013908;28;20026;-81
2024/03/10 08:46:30;;;;;;;26.45;19.15;;;8.80;99.90;;;;;;5013240;28;20092;-84
2024/03/10 08:48:56;;;;;;;26.98;19.65;;;8.80;99.90;;;;;;5013356;28;20034;-82
2024/03/10 08:51:23;;;;;;;26.85;19.73;;;8.80;99.90;;;;;;5013910;28;20034;-82
2024/03/10 08:53:49;;;;;;;24.45;18.02;;;8.80;99.90;;;;;;5014941;28;20546;-82
2024/03/10 08:56:15;;;;;;;25.40;19.48;;;8.80;99.90;;;;;;5016628;28;20025;-82
2024/03/10 08:58:41;;;;;;;25.15;18.58;;;8.80;99.90;;;;;;5018118;28;20029;-83
2024/03/10 09:01:07;;;;;;;24.83;19.15;;;8.90;99.90;;;;;;5034001;28;20006;-80
2024/03/10 09:03:34;;;;;;;23.58;18.20;;;8.90;99.90;;;;;;5037569;28;20049;-82
2024/03/10 09:06:00;;;;;;;22.58;17.33;;;9.00;99.90;;;;;;5037503;28;20033;-83
2024/03/10 09:08:27;;;;;;;26.13;19.20;;;9.00;99.90;;;;;;5033986;28;20164;-84
2024/03/10 09:10:55;;;;;;;22.63;18.40;;;9.00;99.90;;;;;;4998850;28;20018;-83
2024/03/10 09:13:21;;;;;;;24.25;17.92;;;9.10;99.90;;;;;;5014985;28;20042;-82
2024/03/10 09:15:47;;;;;;;23.85;18.00;;;9.10;99.90;;;;;;5018757;28;20037;-83
2024/03/10 09:18:13;;;;;;;26.42;19.30;;;9.20;99.90;;;;;;5018377;28;20030;-83
2024/03/10 09:20:39;;;;;;;25.73;18.42;;;9.20;99.90;;;;;;5017950;28;20072;-83
2024/03/10 09:23:05;;;;;;;24.90;18.50;;;9.20;99.90;;;;;;5018198;28;20029;-83
2024/03/10 09:25:31;;;;;;;24.17;18.77;;;9.30;99.90;;;;;;5032969;28;20046;-84
2024/03/10 09:28:00;;;;;;;25.65;19.40;;;9.40;99.90;;;;;;5017932;28;20077;-85
2024/03/10 09:30:30;;;;;;;24.58;18.70;;;9.40;99.80;;;;;;5000323;28;20489;-84
2024/03/10 09:32:56;;;;;;;25.85;18.92;;;9.40;99.70;;;;;;5017163;28;20370;-83
2024/03/10 09:35:34;;;;;;;24.92;19.25;;;9.50;99.70;;;;;;5017779;28;20432;-84
2024/03/10 09:38:05;;;;;;;25.30;18.83;;;9.50;99.70;;;;;;5016596;28;20025;-84
2024/03/10 09:40:32;;;;;;;23.17;18.83;;;9.60;99.60;;;;;;5033342;28;20682;-82
2024/03/10 09:43:05;;;;;;;25.23;19.05;;;9.70;99.70;;;;;;5032888;28;20080;-83
2024/03/10 09:45:38;;;;;;;25.90;19.55;;;9.80;99.60;;;;;;5017394;28;20122;-83
2024/03/10 09:48:09;;;;;;;26.75;20.08;;;9.80;99.50;;;;;;5032882;28;20022;-83
2024/03/10 09:50:40;;;;;;;26.58;20.17;;;9.90;99.40;;;;;;5016566;28;20083;-84
2024/03/10 09:53:08;;;;;;;23.98;18.98;;;9.90;99.40;;;;;;5032226;28;20431;-83
2024/03/10 09:55:34;;;;;;;24.92;19.52;;;10.00;99.30;;;;;;5016056;28;20424;-83
2024/03/10 09:58:10;;;;;;;25.95;19.85;;;10.00;99.40;;;;;;5017178;28;20509;-83
2024/03/10 10:00:38;;;;;;;25.38;19.30;;;10.00;99.20;;;;;;5032128;28;20050;-82
2024/03/10 10:03:12;;;;;;;26.45;19.27;;;10.10;99.10;;;;;;5015963;28;20100;-82
2024/03/10 10:05:44;;;;;;;23.80;18.38;;;10.10;99.20;;;;;;5017051;28;20151;-84
2024/03/10 10:08:13;;;;;;;25.98;20.27;;;10.10;99.20;;;;;;5015876;28;20053;-84
2024/03/10 10:10:49;;;;;;;22.83;17.98;;;10.10;99.20;;;;;;5015992;28;20144;-83
2024/03/10 10:13:27;;;;;;;23.38;18.88;;;10.20;99.30;;;;;;5015818;28;20380;-84
2024/03/10 10:15:53;;;;;;;24.25;18.90;;;10.30;99.30;;;;;;5017503;28;20033;-83
2024/03/10 10:18:19;;;;;;;24.67;19.38;;;10.30;99.30;;;;;;5034783;28;20034;-82
2024/03/10 10:20:53;;;;;;;25.55;20.05;;;10.40;99.30;;;;;;5020203;28;20107;-83
2024/03/10 10:23:26;;;;;;;23.65;18.27;;;10.40;99.20;;;;;;5040846;28;20048;-83
2024/03/10 10:26:09;;;;;;;24.65;18.88;;;10.50;99.20;;;;;;5022493;28;20058;-83
2024/03/10 10:28:41;;;;;;;24.40;19.42;;;10.60;99.00;;;;;;5036050;28;20033;-83
2024/03/10 10:31:15;;;;;;;25.13;19.45;;;10.60;99.00;;;;;;5029980;28;20029;-83
2024/03/10 10:33:45;;;;;;;24.35;19.10;;;10.70;99.10;;;;;;5045332;28;20014;-83
2024/03/10 10:36:14;;;;;;;25.10;20.15;;;10.80;99.00;;;;;;5023539;28;20470;-83
2024/03/10 10:38:45;;;;;;;24.25;19.70;;;10.80;98.60;;;;;;5016597;28;20056;-82
2024/03/10 10:41:11;;;;;;;23.70;19.15;;;10.80;98.60;;;;;;5017251;28;20022;-82
2024/03/10 10:43:38;;;;;;;24.38;19.10;;;10.80;98.60;;;;;;5016495;28;20034;-83
2024/03/10 10:46:11;;;;;;;27.15;20.40;;;10.90;98.60;;;;;;5015351;28;20030;-83
2024/03/10 10:48:39;;;;;;;24.98;19.58;;;11.00;98.50;;;;;;5016270;28;20432;-82
2024/03/10 10:51:08;;;;;;;25.45;19.55;;;11.00;98.30;;;;;;5015826;28;20018;-82
2024/03/10 10:53:41;;;;;;;27.98;20.65;;;11.00;98.20;;;;;;5017917;28;20041;-84
2024/03/10 10:56:08;;;;;;;23.77;19.83;;;11.10;98.30;;;;;;5002029;28;20018;-83
2024/03/10 10:58:35;;;;;;;27.55;20.23;;;11.10;98.00;;;;;;5017631;28;20212;-82
2024/03/10 11:01:05;;;;;;;28.88;20.02;;;11.10;97.90;;;;;;5031731;28;20117;-82
2024/03/10 11:03:36;;;;;;;23.10;18.80;;;11.20;97.80;;;;;;5015818;28;20068;-83
2024/03/10 11:06:01;;;;;;;24.45;19.27;;;11.20;97.70;;;;;;5031741;28;20069;-83
2024/03/10 11:08:41;;;;;;;22.73;18.70;;;11.20;97.80;;;;;;5015031;28;20038;-82
2024/03/10 11:11:09;;;;;;;24.20;18.55;;;11.30;97.90;;;;;;5016512;28;20098;-82
2024/03/10 11:13:40;;;;;;;27.73;20.83;;;11.40;98.00;;;;;;5015684;28;20022;-82
2024/03/10 11:16:23;;;;;;;24.73;19.92;;;11.40;97.90;;;;;;5016409;28;20048;-81
2024/03/10 11:18:49;;;;;;;23.67;18.98;;;11.50;97.80;;;;;;5015611;28;20026;-82
2024/03/10 11:21:17;;;;;;;23.60;18.88;;;11.60;97.80;;;;;;5015419;28;20140;-80
2024/03/10 11:23:48;;;;;;;24.58;19.75;;;11.70;97.60;;;;;;5034215;28;20072;-80
2024/03/10 11:26:20;;;;;;;23.15;19.08;;;11.70;97.50;;;;;;5033313;28;20042;-80
2024/03/10 11:28:52;;;;;;;21.75;18.45;;;11.90;97.60;;;;;;5017583;28;20489;-80
2024/03/10 11:31:37;;;;;;;22.55;18.55;;;11.90;97.50;;;;;;5015093;28;20030;-80
2024/03/10 11:34:13;;;;;;;22.60;18.63;;;12.10;97.40;;;;;;5015894;28;20026;-83
2024/03/10 11:36:39;;;;;;;20.52;16.85;;;12.10;97.10;;;;;;5015421;28;20193;-82
2024/03/10 11:39:09;;;;;;;21.15;17.02;;;12.20;97.10;;;;;;5013996;28;20433;-82
2024/03/10 11:41:36;;;;;;;24.63;18.73;;;12.30;97.20;;;;;;5013836;28;20040;-82
2024/03/10 11:44:02;;;;;;;22.80;18.67;;;12.30;96.70;;;;;;5014095;28;20060;-82
2024/03/10 11:46:31;;;;;;;23.95;18.58;;;12.30;96.30;;;;;;5014945;28;20029;-83
2024/03/10 11:48:58;;;;;;;22.92;18.58;;;12.20;96.20;;;;;;5014734;28;20034;-81
2024/03/10 11:51:29;;;;;;;20.85;17.20;;;12.30;96.40;;;;;;5014898;28;20030;-82
2024/03/10 11:54:00;;;;;;;25.23;18.20;;;12.20;96.30;;;;;;5015371;28;20021;-82
2024/03/10 11:56:26;;;;;;;24.15;19.05;;;12.20;96.30;;;;;;5014509;28;20029;-83
2024/03/10 11:58:52;;;;;;;25.52;19.25;;;12.20;96.30;;;;;;5025923;28;20042;-81
2024/03/10 12:01:27;;;;;;;28.15;19.42;;;12.20;96.10;;;;;;5005389;28;20109;-80
2024/03/10 12:03:55;;;;;;;22.02;18.10;;;12.20;96.10;;;;;;5023818;28;20033;-83
2024/03/10 12:06:24;;;;;;;23.38;18.77;;;12.20;96.10;;;;;;5038610;28;20046;-82
2024/03/10 12:08:50;;;;;;;21.95;18.75;;;12.20;96.30;;;;;;5024418;28;20052;-82
2024/03/10 12:11:17;;;;;;;22.08;18.15;;;12.20;96.30;;;;;;5013762;28;20141;-81
2024/03/10 12:13:49;;;;;;;25.67;21.20;;;12.30;96.40;;;;;;5013489;28;20451;-83
2024/03/10 12:16:15;;;;;;;23.08;19.08;;;12.30;96.10;;;;;;5014727;28;20033;-83
2024/03/10 12:18:42;;;;;;;26.13;19.42;;;12.30;96.10;;;;;;5013254;28;20268;-83
2024/03/10 12:21:15;;;;;;;22.27;18.13;;;12.50;96.00;;;;;;4997098;28;20481;-82
2024/03/10 12:23:42;;;;;;;24.63;19.17;;;12.50;96.20;;;;;;5029732;28;20022;-83
2024/03/10 12:26:10;;;;;;;26.52;20.67;;;12.60;96.60;;;;;;5013545;28;20080;-83
2024/03/10 12:28:36;;;;;;;23.05;19.60;;;12.70;96.30;;;;;;5013545;28;20022;-83
2024/03/10 12:31:08;;;;;;;23.35;18.85;;;12.70;96.40;;;;;;5013225;28;20030;-82
2024/03/10 12:33:34;;;;;;;22.30;18.30;;;12.80;96.40;;;;;;5013365;28;20026;-82
2024/03/10 12:36:00;;;;;;;21.77;18.33;;;12.90;96.40;;;;;;5013560;28;20033;-84
2024/03/10 12:38:28;;;;;;;22.67;19.02;;;13.00;96.50;;;;;;5013402;28;20038;-81
2024/03/10 12:40:54;;;;;;;22.02;19.00;;;13.00;96.20;;;;;;5013062;28;20034;-83
2024/03/10 12:43:21;;;;;;;25.02;21.05;;;13.00;96.20;;;;;;5013516;28;20117;-88
2024/03/10 12:45:48;;;;;;;28.05;19.55;;;13.00;95.80;;;;;;5014067;28;20029;-83
2024/03/10 12:48:14;;;;;;;24.85;19.77;;;13.00;95.70;;;;;;5012919;28;20068;-83
2024/03/10 12:50:40;;;;;;;25.05;20.77;;;13.00;95.70;;;;;;5014086;28;20018;-85
2024/03/10 12:53:06;;;;;;;26.00;19.40;;;13.00;95.70;;;;;;5016895;28;20033;-85
2024/03/10 12:55:34;;;;;;;24.45;20.02;;;13.00;95.80;;;;;;5017583;28;20026;-82
2024/03/10 12:58:00;;;;;;;24.33;19.88;;;13.00;95.80;;;;;;5016775;28;20076;-81